sensor_id;sensor_type;location;lat;lon;timestamp;P1;durP1;ratioP1;P2;durP2;ratioP2
52948;SDS011;38812;50.942;3.644;2023-03-21T00:01:33;18.25;;;7.10;;
52948;SDS011;38812;50.942;3.644;2023-03-21T00:03:59;17.42;;;7.38;;
52948;SDS011;38812;50.942;3.644;2023-03-21T00:06:24;19.55;;;8.27;;
52948;SDS011;38812;50.942;3.644;2023-03-21T00:08:50;12.45;;;7.00;;
52948;SDS011;38812;50.942;3.644;2023-03-21T00:11:15;22.90;;;7.95;;
52948;SDS011;38812;50.942;3.644;2023-03-21T00:13:41;19.40;;;7.88;;
52948;SDS011;38812;50.942;3.644;2023-03-21T00:16:11;16.95;;;7.70;;
52948;SDS011;38812;50.942;3.644;2023-03-21T00:18:39;13.02;;;7.05;;
52948;SDS011;38812;50.942;3.644;2023-03-21T00:21:11;12.38;;;6.88;;
52948;SDS011;38812;50.942;3.644;2023-03-21T00:23:39;22.70;;;7.85;;
52948;SDS011;38812;50.942;3.644;2023-03-21T00:26:05;18.35;;;7.28;;
52948;SDS011;38812;50.942;3.644;2023-03-21T00:28:34;15.40;;;6.75;;
52948;SDS011;38812;50.942;3.644;2023-03-21T00:31:03;12.30;;;6.65;;
52948;SDS011;38812;50.942;3.644;2023-03-21T00:33:29;20.00;;;6.93;;
52948;SDS011;38812;50.942;3.644;2023-03-21T00:35:55;13.07;;;6.65;;
52948;SDS011;38812;50.942;3.644;2023-03-21T00:38:21;17.05;;;6.15;;
52948;SDS011;38812;50.942;3.644;2023-03-21T00:40:47;21.70;;;6.95;;
52948;SDS011;38812;50.942;3.644;2023-03-21T00:43:14;18.08;;;6.25;;
52948;SDS011;38812;50.942;3.644;2023-03-21T00:45:42;14.80;;;6.20;;
52948;SDS011;38812;50.942;3.644;2023-03-21T00:48:08;13.02;;;5.60;;
52948;SDS011;38812;50.942;3.644;2023-03-21T00:50:35;13.77;;;5.60;;
52948;SDS011;38812;50.942;3.644;2023-03-21T00:53:01;14.88;;;6.00;;
52948;SDS011;38812;50.942;3.644;2023-03-21T00:55:26;16.42;;;6.57;;
52948;SDS011;38812;50.942;3.644;2023-03-21T00:57:52;12.30;;;5.15;;
52948;SDS011;38812;50.942;3.644;2023-03-21T01:00:17;17.45;;;5.55;;
52948;SDS011;38812;50.942;3.644;2023-03-21T01:02:44;15.88;;;6.28;;
52948;SDS011;38812;50.942;3.644;2023-03-21T01:05:28;18.63;;;6.00;;
52948;SDS011;38812;50.942;3.644;2023-03-21T01:08:13;14.93;;;5.00;;
52948;SDS011;38812;50.942;3.644;2023-03-21T01:10:41;19.65;;;5.43;;
52948;SDS011;38812;50.942;3.644;2023-03-21T01:13:10;21.13;;;6.03;;
52948;SDS011;38812;50.942;3.644;2023-03-21T01:15:41;14.80;;;6.32;;
52948;SDS011;38812;50.942;3.644;2023-03-21T01:18:15;13.35;;;5.53;;
52948;SDS011;38812;50.942;3.644;2023-03-21T01:20:42;13.98;;;5.25;;
52948;SDS011;38812;50.942;3.644;2023-03-21T01:23:09;12.80;;;5.30;;
52948;SDS011;38812;50.942;3.644;2023-03-21T01:25:36;15.50;;;4.80;;
52948;SDS011;38812;50.942;3.644;2023-03-21T01:28:01;19.15;;;5.53;;
52948;SDS011;38812;50.942;3.644;2023-03-21T01:30:27;12.70;;;5.18;;
52948;SDS011;38812;50.942;3.644;2023-03-21T01:32:52;12.43;;;5.70;;
52948;SDS011;38812;50.942;3.644;2023-03-21T01:35:18;14.80;;;5.65;;
52948;SDS011;38812;50.942;3.644;2023-03-21T01:37:43;19.35;;;6.47;;
52948;SDS011;38812;50.942;3.644;2023-03-21T01:40:16;17.60;;;5.28;;
52948;SDS011;38812;50.942;3.644;2023-03-21T01:42:45;11.27;;;5.28;;
52948;SDS011;38812;50.942;3.644;2023-03-21T01:48:13;18.73;;;5.00;;
52948;SDS011;38812;50.942;3.644;2023-03-21T01:50:40;11.75;;;5.90;;
52948;SDS011;38812;50.942;3.644;2023-03-21T01:53:07;18.05;;;6.32;;
52948;SDS011;38812;50.942;3.644;2023-03-21T01:55:33;12.02;;;5.30;;
52948;SDS011;38812;50.942;3.644;2023-03-21T01:58:00;12.55;;;4.75;;
52948;SDS011;38812;50.942;3.644;2023-03-21T02:00:28;14.88;;;5.43;;
52948;SDS011;38812;50.942;3.644;2023-03-21T02:02:55;17.67;;;5.97;;
52948;SDS011;38812;50.942;3.644;2023-03-21T02:05:34;11.18;;;4.00;;
52948;SDS011;38812;50.942;3.644;2023-03-21T02:08:28;12.13;;;4.68;;
52948;SDS011;38812;50.942;3.644;2023-03-21T02:10:54;17.67;;;4.63;;
52948;SDS011;38812;50.942;3.644;2023-03-21T02:13:21;11.88;;;4.45;;
52948;SDS011;38812;50.942;3.644;2023-03-21T02:16:01;16.55;;;4.53;;
52948;SDS011;38812;50.942;3.644;2023-03-21T02:27:14;15.55;;;4.85;;
52948;SDS011;38812;50.942;3.644;2023-03-21T02:32:41;13.57;;;4.30;;
52948;SDS011;38812;50.942;3.644;2023-03-21T02:40:48;10.90;;;4.20;;
52948;SDS011;38812;50.942;3.644;2023-03-21T02:46:32;16.05;;;4.20;;
52948;SDS011;38812;50.942;3.644;2023-03-21T02:51:47;9.10;;;4.07;;
52948;SDS011;38812;50.942;3.644;2023-03-21T02:54:18;17.50;;;5.78;;
52948;SDS011;38812;50.942;3.644;2023-03-21T02:56:48;15.10;;;4.32;;
52948;SDS011;38812;50.942;3.644;2023-03-21T02:59:16;9.32;;;3.92;;
52948;SDS011;38812;50.942;3.644;2023-03-21T03:01:43;16.73;;;4.10;;
52948;SDS011;38812;50.942;3.644;2023-03-21T03:12:10;10.95;;;5.13;;
52948;SDS011;38812;50.942;3.644;2023-03-21T03:23:12;14.65;;;4.28;;
52948;SDS011;38812;50.942;3.644;2023-03-21T03:26:11;12.23;;;4.88;;
52948;SDS011;38812;50.942;3.644;2023-03-21T03:28:44;19.38;;;5.43;;
52948;SDS011;38812;50.942;3.644;2023-03-21T03:31:13;15.75;;;4.28;;
52948;SDS011;38812;50.942;3.644;2023-03-21T03:33:46;19.20;;;5.18;;
52948;SDS011;38812;50.942;3.644;2023-03-21T03:36:16;27.58;;;5.10;;
52948;SDS011;38812;50.942;3.644;2023-03-21T03:38:45;13.93;;;4.90;;
52948;SDS011;38812;50.942;3.644;2023-03-21T03:41:16;15.70;;;4.75;;
52948;SDS011;38812;50.942;3.644;2023-03-21T03:43:47;13.23;;;4.60;;
52948;SDS011;38812;50.942;3.644;2023-03-21T03:46:28;25.20;;;5.68;;
52948;SDS011;38812;50.942;3.644;2023-03-21T03:49:04;16.38;;;5.45;;
52948;SDS011;38812;50.942;3.644;2023-03-21T03:52:17;14.77;;;5.60;;
52948;SDS011;38812;50.942;3.644;2023-03-21T03:54:31;15.55;;;5.80;;
52948;SDS011;38812;50.942;3.644;2023-03-21T03:57:01;17.08;;;5.30;;
52948;SDS011;38812;50.942;3.644;2023-03-21T03:59:28;14.93;;;5.40;;
52948;SDS011;38812;50.942;3.644;2023-03-21T04:01:54;15.20;;;5.47;;
52948;SDS011;38812;50.942;3.644;2023-03-21T04:04:19;18.80;;;5.45;;
52948;SDS011;38812;50.942;3.644;2023-03-21T04:06:46;15.45;;;6.95;;
52948;SDS011;38812;50.942;3.644;2023-03-21T04:09:16;25.80;;;6.60;;
52948;SDS011;38812;50.942;3.644;2023-03-21T04:11:42;20.08;;;8.88;;
52948;SDS011;38812;50.942;3.644;2023-03-21T04:14:07;21.02;;;6.70;;
52948;SDS011;38812;50.942;3.644;2023-03-21T04:16:33;21.30;;;7.22;;
52948;SDS011;38812;50.942;3.644;2023-03-21T04:18:58;24.95;;;6.53;;
52948;SDS011;38812;50.942;3.644;2023-03-21T04:21:23;18.60;;;7.47;;
52948;SDS011;38812;50.942;3.644;2023-03-21T04:23:49;14.27;;;5.80;;
52948;SDS011;38812;50.942;3.644;2023-03-21T04:26:15;17.15;;;6.45;;
52948;SDS011;38812;50.942;3.644;2023-03-21T04:28:41;14.63;;;6.85;;
52948;SDS011;38812;50.942;3.644;2023-03-21T04:31:06;15.82;;;6.35;;
52948;SDS011;38812;50.942;3.644;2023-03-21T04:33:33;21.02;;;6.60;;
52948;SDS011;38812;50.942;3.644;2023-03-21T04:36:02;21.15;;;7.55;;
52948;SDS011;38812;50.942;3.644;2023-03-21T04:38:30;17.95;;;7.18;;
52948;SDS011;38812;50.942;3.644;2023-03-21T04:40:56;22.88;;;7.60;;
52948;SDS011;38812;50.942;3.644;2023-03-21T04:43:22;11.90;;;6.78;;
52948;SDS011;38812;50.942;3.644;2023-03-21T04:45:48;20.40;;;8.23;;
52948;SDS011;38812;50.942;3.644;2023-03-21T04:48:14;18.25;;;8.15;;
52948;SDS011;38812;50.942;3.644;2023-03-21T04:50:41;26.60;;;8.75;;
52948;SDS011;38812;50.942;3.644;2023-03-21T04:53:07;25.73;;;8.82;;
52948;SDS011;38812;50.942;3.644;2023-03-21T04:55:33;21.65;;;8.85;;
52948;SDS011;38812;50.942;3.644;2023-03-21T04:57:58;19.80;;;8.68;;
52948;SDS011;38812;50.942;3.644;2023-03-21T05:00:23;22.60;;;8.38;;
52948;SDS011;38812;50.942;3.644;2023-03-21T05:02:49;26.27;;;10.15;;
52948;SDS011;38812;50.942;3.644;2023-03-21T05:05:15;20.35;;;9.75;;
52948;SDS011;38812;50.942;3.644;2023-03-21T05:07:40;19.15;;;8.13;;
52948;SDS011;38812;50.942;3.644;2023-03-21T05:10:07;23.08;;;8.23;;
52948;SDS011;38812;50.942;3.644;2023-03-21T05:12:34;20.73;;;8.13;;
52948;SDS011;38812;50.942;3.644;2023-03-21T05:15:00;20.30;;;8.55;;
52948;SDS011;38812;50.942;3.644;2023-03-21T05:17:25;27.60;;;8.93;;
52948;SDS011;38812;50.942;3.644;2023-03-21T05:19:52;21.73;;;9.40;;
52948;SDS011;38812;50.942;3.644;2023-03-21T05:22:20;24.40;;;9.25;;
52948;SDS011;38812;50.942;3.644;2023-03-21T05:24:48;27.35;;;10.55;;
52948;SDS011;38812;50.942;3.644;2023-03-21T05:27:17;23.50;;;9.30;;
52948;SDS011;38812;50.942;3.644;2023-03-21T05:29:58;26.30;;;9.35;;
52948;SDS011;38812;50.942;3.644;2023-03-21T05:32:26;28.40;;;10.43;;
52948;SDS011;38812;50.942;3.644;2023-03-21T05:34:52;27.98;;;9.75;;
52948;SDS011;38812;50.942;3.644;2023-03-21T05:37:17;26.98;;;9.93;;
52948;SDS011;38812;50.942;3.644;2023-03-21T05:39:42;25.33;;;9.48;;
52948;SDS011;38812;50.942;3.644;2023-03-21T05:42:08;25.17;;;10.15;;
52948;SDS011;38812;50.942;3.644;2023-03-21T05:44:33;26.80;;;10.43;;
52948;SDS011;38812;50.942;3.644;2023-03-21T05:46:59;32.05;;;9.93;;
52948;SDS011;38812;50.942;3.644;2023-03-21T05:49:24;26.60;;;11.45;;
52948;SDS011;38812;50.942;3.644;2023-03-21T05:51:51;28.10;;;10.52;;
52948;SDS011;38812;50.942;3.644;2023-03-21T05:54:16;28.67;;;11.18;;
52948;SDS011;38812;50.942;3.644;2023-03-21T05:56:41;28.35;;;10.75;;
52948;SDS011;38812;50.942;3.644;2023-03-21T05:59:07;28.58;;;11.77;;
52948;SDS011;38812;50.942;3.644;2023-03-21T06:01:32;31.73;;;11.13;;
52948;SDS011;38812;50.942;3.644;2023-03-21T06:03:58;32.78;;;11.77;;
52948;SDS011;38812;50.942;3.644;2023-03-21T06:06:23;25.60;;;11.15;;
52948;SDS011;38812;50.942;3.644;2023-03-21T06:08:48;29.42;;;12.38;;
52948;SDS011;38812;50.942;3.644;2023-03-21T06:11:25;22.67;;;11.70;;
52948;SDS011;38812;50.942;3.644;2023-03-21T06:13:52;33.38;;;12.38;;
52948;SDS011;38812;50.942;3.644;2023-03-21T06:16:18;22.98;;;12.13;;
52948;SDS011;38812;50.942;3.644;2023-03-21T06:18:43;19.90;;;10.38;;
52948;SDS011;38812;50.942;3.644;2023-03-21T06:21:08;23.02;;;10.82;;
52948;SDS011;38812;50.942;3.644;2023-03-21T06:23:34;20.08;;;10.52;;
52948;SDS011;38812;50.942;3.644;2023-03-21T06:26:00;31.27;;;11.57;;
52948;SDS011;38812;50.942;3.644;2023-03-21T06:28:26;28.45;;;10.15;;
52948;SDS011;38812;50.942;3.644;2023-03-21T06:30:51;18.67;;;9.80;;
52948;SDS011;38812;50.942;3.644;2023-03-21T06:33:17;24.30;;;10.13;;
52948;SDS011;38812;50.942;3.644;2023-03-21T06:35:42;26.67;;;10.13;;
52948;SDS011;38812;50.942;3.644;2023-03-21T06:38:08;24.05;;;9.38;;
52948;SDS011;38812;50.942;3.644;2023-03-21T06:40:36;17.23;;;9.35;;
52948;SDS011;38812;50.942;3.644;2023-03-21T06:43:02;23.92;;;9.85;;
52948;SDS011;38812;50.942;3.644;2023-03-21T06:45:27;20.95;;;9.82;;
52948;SDS011;38812;50.942;3.644;2023-03-21T06:47:53;20.63;;;9.93;;
52948;SDS011;38812;50.942;3.644;2023-03-21T06:50:18;19.65;;;8.88;;
52948;SDS011;38812;50.942;3.644;2023-03-21T06:52:44;24.77;;;8.82;;
52948;SDS011;38812;50.942;3.644;2023-03-21T06:55:09;20.42;;;9.07;;
52948;SDS011;38812;50.942;3.644;2023-03-21T06:57:35;19.52;;;8.18;;
52948;SDS011;38812;50.942;3.644;2023-03-21T07:00:01;21.50;;;8.15;;
52948;SDS011;38812;50.942;3.644;2023-03-21T07:02:29;21.80;;;8.52;;
52948;SDS011;38812;50.942;3.644;2023-03-21T07:04:54;17.60;;;8.60;;
52948;SDS011;38812;50.942;3.644;2023-03-21T07:07:22;15.90;;;7.13;;
52948;SDS011;38812;50.942;3.644;2023-03-21T07:09:50;16.02;;;8.32;;
52948;SDS011;38812;50.942;3.644;2023-03-21T07:12:15;18.45;;;7.85;;
52948;SDS011;38812;50.942;3.644;2023-03-21T07:14:41;22.75;;;7.40;;
52948;SDS011;38812;50.942;3.644;2023-03-21T07:17:06;16.75;;;8.00;;
52948;SDS011;38812;50.942;3.644;2023-03-21T07:19:32;21.42;;;7.68;;
52948;SDS011;38812;50.942;3.644;2023-03-21T07:21:57;20.48;;;8.25;;
52948;SDS011;38812;50.942;3.644;2023-03-21T07:24:24;13.15;;;7.20;;
52948;SDS011;38812;50.942;3.644;2023-03-21T07:26:50;17.83;;;8.20;;
52948;SDS011;38812;50.942;3.644;2023-03-21T07:29:15;16.92;;;7.07;;
52948;SDS011;38812;50.942;3.644;2023-03-21T07:31:41;18.23;;;6.90;;
52948;SDS011;38812;50.942;3.644;2023-03-21T07:34:07;15.55;;;6.78;;
52948;SDS011;38812;50.942;3.644;2023-03-21T07:36:32;17.67;;;7.57;;
52948;SDS011;38812;50.942;3.644;2023-03-21T07:38:57;21.10;;;7.05;;
52948;SDS011;38812;50.942;3.644;2023-03-21T07:41:23;17.70;;;6.25;;
52948;SDS011;38812;50.942;3.644;2023-03-21T07:43:48;22.73;;;7.53;;
52948;SDS011;38812;50.942;3.644;2023-03-21T07:46:14;16.77;;;7.30;;
52948;SDS011;38812;50.942;3.644;2023-03-21T07:48:39;15.57;;;6.50;;
52948;SDS011;38812;50.942;3.644;2023-03-21T07:51:04;15.82;;;6.30;;
52948;SDS011;38812;50.942;3.644;2023-03-21T07:53:30;14.68;;;6.60;;
52948;SDS011;38812;50.942;3.644;2023-03-21T07:55:55;13.93;;;6.25;;
52948;SDS011;38812;50.942;3.644;2023-03-21T07:58:22;18.67;;;5.75;;
52948;SDS011;38812;50.942;3.644;2023-03-21T08:00:48;14.77;;;6.57;;
52948;SDS011;38812;50.942;3.644;2023-03-21T08:03:14;15.10;;;6.22;;
52948;SDS011;38812;50.942;3.644;2023-03-21T08:05:39;17.38;;;6.47;;
52948;SDS011;38812;50.942;3.644;2023-03-21T08:08:05;9.48;;;5.00;;
52948;SDS011;38812;50.942;3.644;2023-03-21T08:10:31;18.75;;;6.35;;
52948;SDS011;38812;50.942;3.644;2023-03-21T08:12:56;15.80;;;5.57;;
52948;SDS011;38812;50.942;3.644;2023-03-21T08:15:22;15.40;;;6.00;;
52948;SDS011;38812;50.942;3.644;2023-03-21T08:17:47;11.30;;;5.88;;
52948;SDS011;38812;50.942;3.644;2023-03-21T08:20:14;17.95;;;5.97;;
52948;SDS011;38812;50.942;3.644;2023-03-21T08:22:45;12.40;;;5.80;;
52948;SDS011;38812;50.942;3.644;2023-03-21T08:25:12;13.68;;;5.03;;
52948;SDS011;38812;50.942;3.644;2023-03-21T08:27:40;10.23;;;5.18;;
52948;SDS011;38812;50.942;3.644;2023-03-21T08:30:07;17.98;;;5.10;;
52948;SDS011;38812;50.942;3.644;2023-03-21T08:32:36;15.90;;;5.25;;
52948;SDS011;38812;50.942;3.644;2023-03-21T08:35:03;12.70;;;4.35;;
52948;SDS011;38812;50.942;3.644;2023-03-21T08:37:34;15.75;;;4.97;;
52948;SDS011;38812;50.942;3.644;2023-03-21T08:39:59;19.35;;;5.10;;
52948;SDS011;38812;50.942;3.644;2023-03-21T08:42:25;11.18;;;4.60;;
52948;SDS011;38812;50.942;3.644;2023-03-21T08:44:51;13.85;;;4.72;;
52948;SDS011;38812;50.942;3.644;2023-03-21T08:47:16;18.67;;;5.63;;
52948;SDS011;38812;50.942;3.644;2023-03-21T08:49:42;16.60;;;5.88;;
52948;SDS011;38812;50.942;3.644;2023-03-21T08:52:09;12.35;;;4.63;;
52948;SDS011;38812;50.942;3.644;2023-03-21T08:54:35;12.45;;;4.25;;
52948;SDS011;38812;50.942;3.644;2023-03-21T08:57:00;13.60;;;4.50;;
52948;SDS011;38812;50.942;3.644;2023-03-21T08:59:26;12.52;;;4.78;;
52948;SDS011;38812;50.942;3.644;2023-03-21T09:01:51;14.45;;;5.15;;
52948;SDS011;38812;50.942;3.644;2023-03-21T09:04:17;17.65;;;4.78;;
52948;SDS011;38812;50.942;3.644;2023-03-21T09:06:43;13.45;;;3.97;;
52948;SDS011;38812;50.942;3.644;2023-03-21T09:09:13;15.43;;;5.30;;
52948;SDS011;38812;50.942;3.644;2023-03-21T09:11:39;13.90;;;4.85;;
52948;SDS011;38812;50.942;3.644;2023-03-21T09:14:05;11.48;;;4.20;;
52948;SDS011;38812;50.942;3.644;2023-03-21T09:16:30;12.63;;;4.40;;
52948;SDS011;38812;50.942;3.644;2023-03-21T09:18:56;14.80;;;4.82;;
52948;SDS011;38812;50.942;3.644;2023-03-21T09:21:23;15.48;;;5.22;;
52948;SDS011;38812;50.942;3.644;2023-03-21T09:23:49;15.20;;;4.70;;
52948;SDS011;38812;50.942;3.644;2023-03-21T09:26:17;16.33;;;5.82;;
52948;SDS011;38812;50.942;3.644;2023-03-21T09:28:44;13.43;;;4.00;;
52948;SDS011;38812;50.942;3.644;2023-03-21T09:31:13;8.80;;;4.28;;
52948;SDS011;38812;50.942;3.644;2023-03-21T09:33:40;18.05;;;4.80;;
52948;SDS011;38812;50.942;3.644;2023-03-21T09:36:06;11.52;;;3.90;;
52948;SDS011;38812;50.942;3.644;2023-03-21T09:38:37;10.52;;;4.55;;
52948;SDS011;38812;50.942;3.644;2023-03-21T09:43:54;19.80;;;5.60;;
52948;SDS011;38812;50.942;3.644;2023-03-21T09:49:15;14.35;;;5.05;;
52948;SDS011;38812;50.942;3.644;2023-03-21T09:51:45;18.75;;;4.63;;
52948;SDS011;38812;50.942;3.644;2023-03-21T09:54:20;11.15;;;4.70;;
52948;SDS011;38812;50.942;3.644;2023-03-21T09:56:47;13.23;;;3.83;;
52948;SDS011;38812;50.942;3.644;2023-03-21T09:59:27;10.52;;;4.07;;
52948;SDS011;38812;50.942;3.644;2023-03-21T10:02:30;10.25;;;3.67;;
52948;SDS011;38812;50.942;3.644;2023-03-21T10:04:56;8.50;;;3.70;;
52948;SDS011;38812;50.942;3.644;2023-03-21T10:07:27;14.68;;;4.05;;
52948;SDS011;38812;50.942;3.644;2023-03-21T10:09:56;12.32;;;4.10;;
52948;SDS011;38812;50.942;3.644;2023-03-21T10:12:28;11.18;;;3.78;;
52948;SDS011;38812;50.942;3.644;2023-03-21T10:14:55;14.00;;;4.25;;
52948;SDS011;38812;50.942;3.644;2023-03-21T10:17:36;11.05;;;4.20;;
52948;SDS011;38812;50.942;3.644;2023-03-21T10:22:49;10.40;;;4.63;;
52948;SDS011;38812;50.942;3.644;2023-03-21T10:25:17;12.15;;;4.13;;
52948;SDS011;38812;50.942;3.644;2023-03-21T10:27:50;14.75;;;3.72;;
52948;SDS011;38812;50.942;3.644;2023-03-21T10:30:28;14.55;;;4.35;;
52948;SDS011;38812;50.942;3.644;2023-03-21T10:32:55;7.05;;;3.60;;
52948;SDS011;38812;50.942;3.644;2023-03-21T10:35:26;8.88;;;3.80;;
52948;SDS011;38812;50.942;3.644;2023-03-21T10:37:51;15.80;;;5.05;;
52948;SDS011;38812;50.942;3.644;2023-03-21T10:40:17;12.20;;;4.35;;
52948;SDS011;38812;50.942;3.644;2023-03-21T10:42:42;12.18;;;3.88;;
52948;SDS011;38812;50.942;3.644;2023-03-21T10:45:16;8.57;;;4.30;;
52948;SDS011;38812;50.942;3.644;2023-03-21T10:47:42;8.52;;;3.58;;
52948;SDS011;38812;50.942;3.644;2023-03-21T10:50:12;13.70;;;4.45;;
52948;SDS011;38812;50.942;3.644;2023-03-21T10:52:41;10.90;;;3.55;;
52948;SDS011;38812;50.942;3.644;2023-03-21T10:55:19;12.40;;;3.80;;
52948;SDS011;38812;50.942;3.644;2023-03-21T10:57:47;6.97;;;2.85;;
52948;SDS011;38812;50.942;3.644;2023-03-21T11:00:18;7.18;;;3.08;;
52948;SDS011;38812;50.942;3.644;2023-03-21T11:02:47;9.18;;;3.30;;
52948;SDS011;38812;50.942;3.644;2023-03-21T11:07:43;10.77;;;3.25;;
52948;SDS011;38812;50.942;3.644;2023-03-21T11:10:13;10.35;;;3.22;;
52948;SDS011;38812;50.942;3.644;2023-03-21T11:12:41;10.95;;;3.40;;
52948;SDS011;38812;50.942;3.644;2023-03-21T11:18:23;12.80;;;3.25;;
52948;SDS011;38812;50.942;3.644;2023-03-21T11:20:49;12.15;;;3.17;;
52948;SDS011;38812;50.942;3.644;2023-03-21T11:23:19;8.23;;;3.17;;
52948;SDS011;38812;50.942;3.644;2023-03-21T11:25:49;4.53;;;2.88;;
52948;SDS011;38812;50.942;3.644;2023-03-21T11:28:16;6.13;;;3.33;;
52948;SDS011;38812;50.942;3.644;2023-03-21T11:31:02;7.25;;;2.88;;
52948;SDS011;38812;50.942;3.644;2023-03-21T11:33:34;6.80;;;2.42;;
52948;SDS011;38812;50.942;3.644;2023-03-21T11:38:36;13.93;;;3.45;;
52948;SDS011;38812;50.942;3.644;2023-03-21T11:41:03;9.10;;;3.40;;
52948;SDS011;38812;50.942;3.644;2023-03-21T11:43:31;10.65;;;2.92;;
52948;SDS011;38812;50.942;3.644;2023-03-21T11:46:04;10.27;;;3.28;;
52948;SDS011;38812;50.942;3.644;2023-03-21T11:48:40;8.85;;;2.70;;
52948;SDS011;38812;50.942;3.644;2023-03-21T11:54:03;9.80;;;3.38;;
52948;SDS011;38812;50.942;3.644;2023-03-21T11:56:41;6.82;;;3.40;;
52948;SDS011;38812;50.942;3.644;2023-03-21T11:59:16;5.43;;;3.40;;
52948;SDS011;38812;50.942;3.644;2023-03-21T12:04:36;8.13;;;3.03;;
52948;SDS011;38812;50.942;3.644;2023-03-21T12:15:30;15.05;;;3.55;;
52948;SDS011;38812;50.942;3.644;2023-03-21T12:20:43;9.35;;;3.60;;
52948;SDS011;38812;50.942;3.644;2023-03-21T12:38:58;9.68;;;4.25;;
52948;SDS011;38812;50.942;3.644;2023-03-21T12:41:43;9.15;;;3.30;;
52948;SDS011;38812;50.942;3.644;2023-03-21T12:44:19;13.57;;;4.63;;
52948;SDS011;38812;50.942;3.644;2023-03-21T12:46:48;12.15;;;4.63;;
52948;SDS011;38812;50.942;3.644;2023-03-21T12:51:54;11.27;;;4.43;;
52948;SDS011;38812;50.942;3.644;2023-03-21T13:00:04;9.95;;;3.78;;
52948;SDS011;38812;50.942;3.644;2023-03-21T13:05:54;10.48;;;4.93;;
52948;SDS011;38812;50.942;3.644;2023-03-21T13:11:11;6.80;;;4.10;;
52948;SDS011;38812;50.942;3.644;2023-03-21T13:19:04;14.30;;;4.10;;
52948;SDS011;38812;50.942;3.644;2023-03-21T13:24:36;12.02;;;4.32;;
52948;SDS011;38812;50.942;3.644;2023-03-21T13:27:05;14.45;;;5.65;;
52948;SDS011;38812;50.942;3.644;2023-03-21T13:32:22;12.55;;;5.10;;
52948;SDS011;38812;50.942;3.644;2023-03-21T13:34:55;10.35;;;5.13;;
52948;SDS011;38812;50.942;3.644;2023-03-21T13:37:24;11.35;;;5.78;;
52948;SDS011;38812;50.942;3.644;2023-03-21T13:39:54;12.93;;;5.75;;
52948;SDS011;38812;50.942;3.644;2023-03-21T13:42:28;12.43;;;5.88;;
52948;SDS011;38812;50.942;3.644;2023-03-21T13:44:57;10.73;;;5.88;;
52948;SDS011;38812;50.942;3.644;2023-03-21T13:47:50;10.65;;;6.25;;
52948;SDS011;38812;50.942;3.644;2023-03-21T13:55:28;10.20;;;5.20;;
52948;SDS011;38812;50.942;3.644;2023-03-21T13:57:55;8.07;;;4.43;;
52948;SDS011;38812;50.942;3.644;2023-03-21T14:00:21;7.60;;;4.95;;
52948;SDS011;38812;50.942;3.644;2023-03-21T14:03:00;17.00;;;6.97;;
52948;SDS011;38812;50.942;3.644;2023-03-21T14:05:31;7.07;;;4.88;;
52948;SDS011;38812;50.942;3.644;2023-03-21T14:08:03;10.75;;;4.57;;
52948;SDS011;38812;50.942;3.644;2023-03-21T14:10:36;8.65;;;3.40;;
52948;SDS011;38812;50.942;3.644;2023-03-21T14:13:04;6.38;;;4.20;;
52948;SDS011;38812;50.942;3.644;2023-03-21T14:15:52;5.53;;;3.08;;
52948;SDS011;38812;50.942;3.644;2023-03-21T14:18:18;8.25;;;3.15;;
52948;SDS011;38812;50.942;3.644;2023-03-21T14:20:51;6.75;;;3.72;;
52948;SDS011;38812;50.942;3.644;2023-03-21T14:23:17;7.82;;;3.45;;
52948;SDS011;38812;50.942;3.644;2023-03-21T14:25:44;4.78;;;2.75;;
52948;SDS011;38812;50.942;3.644;2023-03-21T14:28:16;4.75;;;2.75;;
52948;SDS011;38812;50.942;3.644;2023-03-21T14:30:44;4.73;;;3.10;;
52948;SDS011;38812;50.942;3.644;2023-03-21T14:33:15;7.00;;;4.65;;
52948;SDS011;38812;50.942;3.644;2023-03-21T14:35:58;6.30;;;3.28;;
52948;SDS011;38812;50.942;3.644;2023-03-21T14:38:32;7.25;;;3.25;;
52948;SDS011;38812;50.942;3.644;2023-03-21T14:40:59;5.05;;;2.83;;
52948;SDS011;38812;50.942;3.644;2023-03-21T14:43:25;6.88;;;3.03;;
52948;SDS011;38812;50.942;3.644;2023-03-21T14:45:54;13.10;;;7.57;;
52948;SDS011;38812;50.942;3.644;2023-03-21T14:48:27;3.70;;;2.25;;
52948;SDS011;38812;50.942;3.644;2023-03-21T14:51:00;6.53;;;2.35;;
52948;SDS011;38812;50.942;3.644;2023-03-21T14:53:28;10.02;;;3.60;;
52948;SDS011;38812;50.942;3.644;2023-03-21T14:58:22;5.07;;;3.08;;
52948;SDS011;38812;50.942;3.644;2023-03-21T15:00:49;8.35;;;3.58;;
52948;SDS011;38812;50.942;3.644;2023-03-21T15:03:15;6.78;;;2.90;;
52948;SDS011;38812;50.942;3.644;2023-03-21T15:05:42;13.20;;;4.57;;
52948;SDS011;38812;50.942;3.644;2023-03-21T15:08:20;6.20;;;2.95;;
52948;SDS011;38812;50.942;3.644;2023-03-21T15:10:54;4.72;;;2.60;;
52948;SDS011;38812;50.942;3.644;2023-03-21T15:13:22;5.90;;;2.35;;
52948;SDS011;38812;50.942;3.644;2023-03-21T15:15:51;4.03;;;2.10;;
52948;SDS011;38812;50.942;3.644;2023-03-21T15:18:29;5.63;;;2.65;;
52948;SDS011;38812;50.942;3.644;2023-03-21T15:20:57;4.97;;;2.70;;
52948;SDS011;38812;50.942;3.644;2023-03-21T15:23:30;5.53;;;3.00;;
52948;SDS011;38812;50.942;3.644;2023-03-21T15:26:02;11.57;;;2.78;;
52948;SDS011;38812;50.942;3.644;2023-03-21T15:28:29;4.55;;;2.53;;
52948;SDS011;38812;50.942;3.644;2023-03-21T15:30:58;8.20;;;2.33;;
52948;SDS011;38812;50.942;3.644;2023-03-21T15:33:24;4.43;;;2.17;;
52948;SDS011;38812;50.942;3.644;2023-03-21T15:35:52;6.05;;;2.33;;
52948;SDS011;38812;50.942;3.644;2023-03-21T15:38:29;5.90;;;2.60;;
52948;SDS011;38812;50.942;3.644;2023-03-21T15:46:15;4.60;;;2.50;;
52948;SDS011;38812;50.942;3.644;2023-03-21T15:48:43;5.60;;;2.83;;
52948;SDS011;38812;50.942;3.644;2023-03-21T15:51:10;3.65;;;3.10;;
52948;SDS011;38812;50.942;3.644;2023-03-21T15:53:43;6.88;;;3.40;;
52948;SDS011;38812;50.942;3.644;2023-03-21T15:56:08;6.78;;;3.28;;
52948;SDS011;38812;50.942;3.644;2023-03-21T15:58:44;6.55;;;2.95;;
52948;SDS011;38812;50.942;3.644;2023-03-21T16:01:14;20.67;;;9.52;;
52948;SDS011;38812;50.942;3.644;2023-03-21T16:03:43;12.82;;;3.45;;
52948;SDS011;38812;50.942;3.644;2023-03-21T16:08:46;5.07;;;2.65;;
52948;SDS011;38812;50.942;3.644;2023-03-21T16:13:50;6.57;;;3.40;;
52948;SDS011;38812;50.942;3.644;2023-03-21T16:18:46;11.82;;;3.80;;
52948;SDS011;38812;50.942;3.644;2023-03-21T16:21:13;14.95;;;4.50;;
52948;SDS011;38812;50.942;3.644;2023-03-21T16:23:41;6.75;;;3.38;;
52948;SDS011;38812;50.942;3.644;2023-03-21T16:26:09;8.18;;;4.13;;
52948;SDS011;38812;50.942;3.644;2023-03-21T16:28:37;12.02;;;4.97;;
52948;SDS011;38812;50.942;3.644;2023-03-21T16:31:02;12.50;;;4.18;;
52948;SDS011;38812;50.942;3.644;2023-03-21T16:33:27;10.40;;;4.80;;
52948;SDS011;38812;50.942;3.644;2023-03-21T16:35:53;7.78;;;4.05;;
52948;SDS011;38812;50.942;3.644;2023-03-21T16:38:21;10.13;;;5.15;;
52948;SDS011;38812;50.942;3.644;2023-03-21T16:40:47;11.30;;;5.10;;
52948;SDS011;38812;50.942;3.644;2023-03-21T16:43:13;12.27;;;5.50;;
52948;SDS011;38812;50.942;3.644;2023-03-21T16:45:38;10.35;;;4.68;;
52948;SDS011;38812;50.942;3.644;2023-03-21T16:48:04;7.03;;;4.53;;
52948;SDS011;38812;50.942;3.644;2023-03-21T16:52:55;10.63;;;3.97;;
52948;SDS011;38812;50.942;3.644;2023-03-21T16:55:21;6.30;;;4.13;;
52948;SDS011;38812;50.942;3.644;2023-03-21T16:57:47;7.82;;;3.80;;
52948;SDS011;38812;50.942;3.644;2023-03-21T17:00:16;11.30;;;4.35;;
52948;SDS011;38812;50.942;3.644;2023-03-21T17:02:49;8.05;;;4.30;;
52948;SDS011;38812;50.942;3.644;2023-03-21T17:05:16;10.20;;;4.85;;